sensor_id;sensor_type;location;lat;lon;timestamp;pressure;altitude;pressure_sealevel;temperature;humidity
6668;BME280;3370;47.712;9.082;2023-07-31T00:00:30;97199.09;;;15.82;88.27
6668;BME280;3370;47.712;9.082;2023-07-31T00:02:56;97202.41;;;15.84;87.96
6668;BME280;3370;47.712;9.082;2023-07-31T00:05:22;97197.44;;;15.81;88.25
6668;BME280;3370;47.712;9.082;2023-07-31T00:07:47;97196.91;;;15.76;88.76
6668;BME280;3370;47.712;9.082;2023-07-31T00:10:13;97196.59;;;15.81;89.09
6668;BME280;3370;47.712;9.082;2023-07-31T00:12:42;97192.16;;;15.83;89.07
6668;BME280;3370;47.712;9.082;2023-07-31T00:15:08;97193.16;;;15.80;89.57
6668;BME280;3370;47.712;9.082;2023-07-31T00:17:34;97191.53;;;15.79;89.68
6668;BME280;3370;47.712;9.082;2023-07-31T00:20:00;97188.94;;;15.79;90.06
6668;BME280;3370;47.712;9.082;2023-07-31T00:22:26;97188.00;;;15.80;89.87
6668;BME280;3370;47.712;9.082;2023-07-31T00:24:52;97197.63;;;15.78;89.98
6668;BME280;3370;47.712;9.082;2023-07-31T00:27:18;97187.63;;;15.72;89.43
6668;BME280;3370;47.712;9.082;2023-07-31T00:29:43;97183.66;;;15.66;89.23
6668;BME280;3370;47.712;9.082;2023-07-31T00:32:09;97190.22;;;15.72;88.74
6668;BME280;3370;47.712;9.082;2023-07-31T00:34:35;97181.16;;;15.65;89.05
6668;BME280;3370;47.712;9.082;2023-07-31T00:37:01;97185.97;;;15.71;88.70
6668;BME280;3370;47.712;9.082;2023-07-31T00:39:26;97192.63;;;15.61;89.40
6668;BME280;3370;47.712;9.082;2023-07-31T00:41:52;97188.94;;;15.65;88.37
6668;BME280;3370;47.712;9.082;2023-07-31T00:44:18;97183.22;;;15.60;89.16
6668;BME280;3370;47.712;9.082;2023-07-31T00:46:44;97190.72;;;15.50;89.74
6668;BME280;3370;47.712;9.082;2023-07-31T00:49:10;97188.69;;;15.55;89.05
6668;BME280;3370;47.712;9.082;2023-07-31T00:51:37;97198.94;;;15.57;88.89
6668;BME280;3370;47.712;9.082;2023-07-31T00:54:03;97191.84;;;15.46;89.62
6668;BME280;3370;47.712;9.082;2023-07-31T00:56:29;97189.66;;;15.40;90.09
6668;BME280;3370;47.712;9.082;2023-07-31T00:58:56;97186.41;;;15.36;91.31
6668;BME280;3370;47.712;9.082;2023-07-31T01:01:22;97187.34;;;15.35;91.34
6668;BME280;3370;47.712;9.082;2023-07-31T01:03:49;97181.97;;;15.38;91.33
6668;BME280;3370;47.712;9.082;2023-07-31T01:06:33;97183.81;;;15.36;91.48
6668;BME280;3370;47.712;9.082;2023-07-31T01:09:06;97177.38;;;15.29;92.03
6668;BME280;3370;47.712;9.082;2023-07-31T01:11:37;97178.28;;;15.28;92.44
6668;BME280;3370;47.712;9.082;2023-07-31T01:14:04;97178.81;;;15.33;92.51
6668;BME280;3370;47.712;9.082;2023-07-31T01:16:31;97174.59;;;15.32;92.44
6668;BME280;3370;47.712;9.082;2023-07-31T01:18:57;97164.88;;;15.36;92.31
6668;BME280;3370;47.712;9.082;2023-07-31T01:27:17;97168.47;;;15.33;92.37
6668;BME280;3370;47.712;9.082;2023-07-31T01:30:00;97160.13;;;15.42;92.45
6668;BME280;3370;47.712;9.082;2023-07-31T01:32:29;97160.50;;;15.36;92.82
6668;BME280;3370;47.712;9.082;2023-07-31T01:34:57;97161.97;;;15.40;92.65
6668;BME280;3370;47.712;9.082;2023-07-31T01:37:30;97155.34;;;15.36;92.16
6668;BME280;3370;47.712;9.082;2023-07-31T01:39:56;97160.59;;;15.34;92.31
6668;BME280;3370;47.712;9.082;2023-07-31T01:42:22;97162.94;;;15.25;92.48
6668;BME280;3370;47.712;9.082;2023-07-31T01:44:48;97151.72;;;15.24;92.55
6668;BME280;3370;47.712;9.082;2023-07-31T01:47:13;97157.75;;;15.25;91.34
6668;BME280;3370;47.712;9.082;2023-07-31T01:49:39;97153.97;;;15.16;91.48
6668;BME280;3370;47.712;9.082;2023-07-31T01:52:05;97158.53;;;15.12;91.68
6668;BME280;3370;47.712;9.082;2023-07-31T01:54:31;97153.53;;;15.09;91.41
6668;BME280;3370;47.712;9.082;2023-07-31T01:56:57;97156.28;;;15.06;92.24
6668;BME280;3370;47.712;9.082;2023-07-31T01:59:23;97150.13;;;14.94;92.00
6668;BME280;3370;47.712;9.082;2023-07-31T02:01:48;97139.84;;;14.93;93.48
6668;BME280;3370;47.712;9.082;2023-07-31T02:04:14;97145.84;;;14.93;93.98
6668;BME280;3370;47.712;9.082;2023-07-31T02:06:40;97147.63;;;14.93;94.06
6668;BME280;3370;47.712;9.082;2023-07-31T02:09:06;97142.44;;;14.93;94.51
6668;BME280;3370;47.712;9.082;2023-07-31T02:11:31;97149.63;;;15.02;93.65
6668;BME280;3370;47.712;9.082;2023-07-31T02:13:57;97143.56;;;15.03;93.19
6668;BME280;3370;47.712;9.082;2023-07-31T02:16:23;97144.09;;;15.08;91.44
6668;BME280;3370;47.712;9.082;2023-07-31T02:18:49;97131.34;;;15.05;91.37
6668;BME280;3370;47.712;9.082;2023-07-31T02:21:14;97132.97;;;15.06;91.67
6668;BME280;3370;47.712;9.082;2023-07-31T02:23:40;97130.31;;;15.08;89.96
6668;BME280;3370;47.712;9.082;2023-07-31T02:26:06;97125.75;;;15.11;89.79
6668;BME280;3370;47.712;9.082;2023-07-31T02:28:32;97127.63;;;15.09;89.73
6668;BME280;3370;47.712;9.082;2023-07-31T02:30:57;97117.06;;;15.12;90.08
6668;BME280;3370;47.712;9.082;2023-07-31T02:33:23;97116.44;;;15.09;90.21
6668;BME280;3370;47.712;9.082;2023-07-31T02:35:49;97110.63;;;15.05;89.79
6668;BME280;3370;47.712;9.082;2023-07-31T02:38:15;97120.97;;;15.05;89.40
6668;BME280;3370;47.712;9.082;2023-07-31T02:40:40;97114.84;;;15.06;89.91
6668;BME280;3370;47.712;9.082;2023-07-31T02:43:08;97118.38;;;15.05;88.75
6668;BME280;3370;47.712;9.082;2023-07-31T02:45:33;97111.75;;;15.01;89.42
6668;BME280;3370;47.712;9.082;2023-07-31T02:47:59;97108.22;;;15.02;88.89
6668;BME280;3370;47.712;9.082;2023-07-31T02:50:25;97109.16;;;15.01;88.84
6668;BME280;3370;47.712;9.082;2023-07-31T02:52:53;97098.59;;;15.04;87.97
6668;BME280;3370;47.712;9.082;2023-07-31T02:55:18;97100.06;;;15.08;87.63
6668;BME280;3370;47.712;9.082;2023-07-31T02:57:44;97103.75;;;15.04;86.92
6668;BME280;3370;47.712;9.082;2023-07-31T03:00:10;97108.78;;;14.93;87.25
6668;BME280;3370;47.712;9.082;2023-07-31T03:02:36;97123.09;;;14.99;87.20
6668;BME280;3370;47.712;9.082;2023-07-31T03:05:02;97129.41;;;14.94;86.18
6668;BME280;3370;47.712;9.082;2023-07-31T03:07:28;97123.41;;;14.80;86.78
6668;BME280;3370;47.712;9.082;2023-07-31T03:09:56;97129.41;;;14.66;87.78
6668;BME280;3370;47.712;9.082;2023-07-31T03:12:22;97123.22;;;14.68;88.81
6668;BME280;3370;47.712;9.082;2023-07-31T03:14:48;97123.59;;;14.76;87.84
6668;BME280;3370;47.712;9.082;2023-07-31T03:17:13;97125.44;;;14.74;88.93
6668;BME280;3370;47.712;9.082;2023-07-31T03:19:39;97123.69;;;14.75;89.20
6668;BME280;3370;47.712;9.082;2023-07-31T03:22:05;97124.50;;;14.75;89.95
6668;BME280;3370;47.712;9.082;2023-07-31T03:24:31;97121.47;;;14.83;89.60
6668;BME280;3370;47.712;9.082;2023-07-31T03:26:56;97116.94;;;14.87;89.51
6668;BME280;3370;47.712;9.082;2023-07-31T03:29:22;97119.88;;;14.95;88.80
6668;BME280;3370;47.712;9.082;2023-07-31T03:31:48;97114.06;;;14.91;88.13
6668;BME280;3370;47.712;9.082;2023-07-31T03:34:14;97128.94;;;15.02;88.37
6668;BME280;3370;47.712;9.082;2023-07-31T03:36:40;97122.84;;;15.03;88.20
6668;BME280;3370;47.712;9.082;2023-07-31T03:39:05;97125.22;;;15.06;88.35
6668;BME280;3370;47.712;9.082;2023-07-31T03:41:31;97125.59;;;15.14;87.82
6668;BME280;3370;47.712;9.082;2023-07-31T03:43:57;97122.28;;;14.98;88.65
6668;BME280;3370;47.712;9.082;2023-07-31T03:46:24;97129.50;;;14.93;88.94
6668;BME280;3370;47.712;9.082;2023-07-31T03:48:50;97125.06;;;14.95;89.57
6668;BME280;3370;47.712;9.082;2023-07-31T03:51:16;97127.09;;;14.90;90.53
6668;BME280;3370;47.712;9.082;2023-07-31T03:53:43;97126.72;;;14.96;89.91
6668;BME280;3370;47.712;9.082;2023-07-31T03:56:10;97123.84;;;15.01;89.58
6668;BME280;3370;47.712;9.082;2023-07-31T03:58:36;97135.03;;;15.01;89.81
6668;BME280;3370;47.712;9.082;2023-07-31T04:01:03;97136.34;;;15.08;89.83
6668;BME280;3370;47.712;9.082;2023-07-31T04:03:29;97137.97;;;15.09;89.59
6668;BME280;3370;47.712;9.082;2023-07-31T04:05:56;97137.25;;;15.07;90.36
6668;BME280;3370;47.712;9.082;2023-07-31T04:08:22;97141.50;;;15.08;90.07
6668;BME280;3370;47.712;9.082;2023-07-31T04:10:48;97141.50;;;15.08;90.04
6668;BME280;3370;47.712;9.082;2023-07-31T04:13:14;97139.44;;;15.13;89.68
6668;BME280;3370;47.712;9.082;2023-07-31T04:15:40;97144.53;;;15.15;89.70
6668;BME280;3370;47.712;9.082;2023-07-31T04:18:06;97138.22;;;15.19;89.50
6668;BME280;3370;47.712;9.082;2023-07-31T04:20:32;97140.53;;;15.24;88.83
6668;BME280;3370;47.712;9.082;2023-07-31T04:22:58;97150.19;;;15.07;88.46
6668;BME280;3370;47.712;9.082;2023-07-31T04:25:24;97153.78;;;15.19;88.06
6668;BME280;3370;47.712;9.082;2023-07-31T04:27:49;97146.94;;;15.18;87.87
6668;BME280;3370;47.712;9.082;2023-07-31T04:30:15;97147.59;;;15.22;87.54
6668;BME280;3370;47.712;9.082;2023-07-31T04:32:41;97135.19;;;15.27;87.31
6668;BME280;3370;47.712;9.082;2023-07-31T04:35:07;97142.22;;;15.25;86.98
6668;BME280;3370;47.712;9.082;2023-07-31T04:37:33;97135.09;;;15.28;86.55
6668;BME280;3370;47.712;9.082;2023-07-31T04:39:58;97142.00;;;15.28;86.43
6668;BME280;3370;47.712;9.082;2023-07-31T04:42:24;97140.16;;;15.30;86.80
6668;BME280;3370;47.712;9.082;2023-07-31T04:44:50;97129.06;;;15.28;86.17
6668;BME280;3370;47.712;9.082;2023-07-31T04:47:16;97138.31;;;15.32;85.83
6668;BME280;3370;47.712;9.082;2023-07-31T04:49:42;97141.09;;;15.29;86.26
6668;BME280;3370;47.712;9.082;2023-07-31T04:52:07;97136.66;;;15.31;86.76
6668;BME280;3370;47.712;9.082;2023-07-31T04:54:33;97131.91;;;15.38;86.46
6668;BME280;3370;47.712;9.082;2023-07-31T04:56:59;97132.75;;;15.38;86.08
6668;BME280;3370;47.712;9.082;2023-07-31T04:59:25;97136.88;;;15.41;86.19
6668;BME280;3370;47.712;9.082;2023-07-31T05:01:50;97134.84;;;15.46;86.23
6668;BME280;3370;47.712;9.082;2023-07-31T05:04:16;97130.28;;;15.49;86.24
6668;BME280;3370;47.712;9.082;2023-07-31T05:06:42;97133.44;;;15.55;86.00
6668;BME280;3370;47.712;9.082;2023-07-31T05:09:08;97127.13;;;15.59;85.83
6668;BME280;3370;47.712;9.082;2023-07-31T05:11:35;97129.13;;;15.68;85.05
6668;BME280;3370;47.712;9.082;2023-07-31T05:14:01;97135.06;;;15.70;84.56
6668;BME280;3370;47.712;9.082;2023-07-31T05:16:26;97141.78;;;15.72;84.49
6668;BME280;3370;47.712;9.082;2023-07-31T05:18:52;97133.47;;;15.67;85.27
6668;BME280;3370;47.712;9.082;2023-07-31T05:21:18;97124.25;;;15.36;88.27
6668;BME280;3370;47.712;9.082;2023-07-31T05:23:44;97125.13;;;15.49;87.20
6668;BME280;3370;47.712;9.082;2023-07-31T05:26:09;97126.25;;;15.45;88.01
6668;BME280;3370;47.712;9.082;2023-07-31T05:28:36;97127.91;;;15.46;88.20
6668;BME280;3370;47.712;9.082;2023-07-31T05:31:05;97135.25;;;15.40;87.92
6668;BME280;3370;47.712;9.082;2023-07-31T05:33:31;97133.63;;;15.51;88.12
6668;BME280;3370;47.712;9.082;2023-07-31T05:35:57;97143.41;;;15.61;87.90
6668;BME280;3370;47.712;9.082;2023-07-31T05:38:23;97142.06;;;15.68;85.77
6668;BME280;3370;47.712;9.082;2023-07-31T05:40:49;97139.06;;;15.61;87.31
6668;BME280;3370;47.712;9.082;2023-07-31T05:43:14;97130.66;;;15.58;87.59
6668;BME280;3370;47.712;9.082;2023-07-31T05:45:42;97141.13;;;15.56;87.22
6668;BME280;3370;47.712;9.082;2023-07-31T05:48:08;97136.38;;;15.63;86.82
6668;BME280;3370;47.712;9.082;2023-07-31T05:50:33;97138.53;;;15.56;86.47
6668;BME280;3370;47.712;9.082;2023-07-31T05:52:59;97139.16;;;15.60;87.23
6668;BME280;3370;47.712;9.082;2023-07-31T05:55:25;97132.09;;;15.62;87.29
6668;BME280;3370;47.712;9.082;2023-07-31T05:57:54;97141.94;;;15.57;87.14
6668;BME280;3370;47.712;9.082;2023-07-31T06:00:21;97141.13;;;15.56;88.07
6668;BME280;3370;47.712;9.082;2023-07-31T06:02:47;97135.94;;;15.56;87.37
6668;BME280;3370;47.712;9.082;2023-07-31T06:05:13;97145.72;;;15.65;86.97
6668;BME280;3370;47.712;9.082;2023-07-31T06:07:39;97148.66;;;15.74;87.01
6668;BME280;3370;47.712;9.082;2023-07-31T06:10:05;97142.69;;;15.86;83.74
6668;BME280;3370;47.712;9.082;2023-07-31T06:12:32;97145.78;;;15.78;81.36
6668;BME280;3370;47.712;9.082;2023-07-31T06:14:58;97149.50;;;15.74;81.67
6668;BME280;3370;47.712;9.082;2023-07-31T06:17:24;97143.47;;;15.74;82.49
6668;BME280;3370;47.712;9.082;2023-07-31T06:19:51;97140.97;;;15.72;80.79
6668;BME280;3370;47.712;9.082;2023-07-31T06:22:17;97141.34;;;15.66;82.00
6668;BME280;3370;47.712;9.082;2023-07-31T06:24:44;97148.38;;;15.64;83.09
6668;BME280;3370;47.712;9.082;2023-07-31T06:27:11;97144.66;;;15.68;83.20
6668;BME280;3370;47.712;9.082;2023-07-31T06:29:36;97142.19;;;15.66;83.62
6668;BME280;3370;47.712;9.082;2023-07-31T06:32:02;97151.06;;;15.77;84.52
6668;BME280;3370;47.712;9.082;2023-07-31T06:34:29;97150.31;;;15.75;84.52
6668;BME280;3370;47.712;9.082;2023-07-31T06:36:56;97151.16;;;15.75;83.77
6668;BME280;3370;47.712;9.082;2023-07-31T06:39:22;97146.81;;;15.76;83.72
6668;BME280;3370;47.712;9.082;2023-07-31T06:41:48;97148.09;;;15.83;82.49
6668;BME280;3370;47.712;9.082;2023-07-31T06:44:14;97143.81;;;15.82;81.29
6668;BME280;3370;47.712;9.082;2023-07-31T06:46:40;97131.50;;;15.85;82.63
6668;BME280;3370;47.712;9.082;2023-07-31T06:49:06;97136.13;;;15.80;82.55
6668;BME280;3370;47.712;9.082;2023-07-31T06:51:31;97135.53;;;15.89;80.62
6668;BME280;3370;47.712;9.082;2023-07-31T06:53:58;97126.44;;;15.97;81.08
6668;BME280;3370;47.712;9.082;2023-07-31T06:56:23;97131.31;;;16.01;81.00
6668;BME280;3370;47.712;9.082;2023-07-31T06:58:49;97136.50;;;16.01;81.27
6668;BME280;3370;47.712;9.082;2023-07-31T07:01:15;97134.44;;;15.94;80.16
6668;BME280;3370;47.712;9.082;2023-07-31T07:03:41;97140.44;;;15.94;81.68
6668;BME280;3370;47.712;9.082;2023-07-31T07:06:07;97142.72;;;15.99;79.57
6668;BME280;3370;47.712;9.082;2023-07-31T07:08:32;97140.03;;;16.13;79.05
6668;BME280;3370;47.712;9.082;2023-07-31T07:10:58;97132.19;;;16.27;79.96
6668;BME280;3370;47.712;9.082;2023-07-31T07:13:24;97125.34;;;16.39;79.12
6668;BME280;3370;47.712;9.082;2023-07-31T07:15:51;97107.19;;;16.52;77.09
6668;BME280;3370;47.712;9.082;2023-07-31T07:18:17;97107.09;;;16.54;77.25
6668;BME280;3370;47.712;9.082;2023-07-31T07:20:49;97100.00;;;16.68;79.26
6668;BME280;3370;47.712;9.082;2023-07-31T07:23:15;97101.25;;;16.63;78.66
6668;BME280;3370;47.712;9.082;2023-07-31T07:25:45;97101.78;;;16.68;78.04
6668;BME280;3370;47.712;9.082;2023-07-31T07:28:12;97095.81;;;16.66;79.72
6668;BME280;3370;47.712;9.082;2023-07-31T07:30:37;97098.31;;;16.67;79.60
6668;BME280;3370;47.712;9.082;2023-07-31T07:33:03;97101.34;;;16.61;78.06
6668;BME280;3370;47.712;9.082;2023-07-31T07:35:29;97099.56;;;16.75;77.68
6668;BME280;3370;47.712;9.082;2023-07-31T07:37:55;97100.81;;;16.95;78.05
6668;BME280;3370;47.712;9.082;2023-07-31T07:40:21;97096.22;;;16.98;76.58
6668;BME280;3370;47.712;9.082;2023-07-31T07:42:47;97110.88;;;16.99;74.50
6668;BME280;3370;47.712;9.082;2023-07-31T07:45:13;97113.47;;;16.99;72.93
6668;BME280;3370;47.712;9.082;2023-07-31T07:47:41;97122.63;;;16.92;73.42
6668;BME280;3370;47.712;9.082;2023-07-31T07:50:08;97124.91;;;16.97;72.88
6668;BME280;3370;47.712;9.082;2023-07-31T07:52:34;97109.41;;;17.08;71.33
6668;BME280;3370;47.712;9.082;2023-07-31T07:54:59;97101.94;;;17.03;72.23
6668;BME280;3370;47.712;9.082;2023-07-31T07:57:26;97117.84;;;16.99;72.14
6668;BME280;3370;47.712;9.082;2023-07-31T07:59:52;97110.44;;;17.05;71.68
6668;BME280;3370;47.712;9.082;2023-07-31T08:02:18;97112.97;;;16.94;71.13
6668;BME280;3370;47.712;9.082;2023-07-31T08:04:43;97119.91;;;17.07;73.22
6668;BME280;3370;47.712;9.082;2023-07-31T08:07:13;97122.50;;;17.07;71.59
6668;BME280;3370;47.712;9.082;2023-07-31T08:09:39;97120.84;;;17.05;72.86
6668;BME280;3370;47.712;9.082;2023-07-31T08:12:06;97116.94;;;17.24;72.07
6668;BME280;3370;47.712;9.082;2023-07-31T08:14:32;97120.84;;;17.42;72.13
6668;BME280;3370;47.712;9.082;2023-07-31T08:16:58;97104.84;;;17.60;69.41
6668;BME280;3370;47.712;9.082;2023-07-31T08:19:24;97101.56;;;17.69;69.78
6668;BME280;3370;47.712;9.082;2023-07-31T08:21:49;97104.94;;;17.82;69.84
6668;BME280;3370;47.712;9.082;2023-07-31T08:24:15;97095.94;;;17.75;69.32
6668;BME280;3370;47.712;9.082;2023-07-31T08:26:42;97093.53;;;17.72;70.69
6668;BME280;3370;47.712;9.082;2023-07-31T08:29:08;97103.69;;;17.64;71.51
6668;BME280;3370;47.712;9.082;2023-07-31T08:31:34;97106.56;;;17.72;71.68
6668;BME280;3370;47.712;9.082;2023-07-31T08:34:00;97103.13;;;17.96;69.75
6668;BME280;3370;47.712;9.082;2023-07-31T08:36:26;97098.00;;;18.18;71.49
6668;BME280;3370;47.712;9.082;2023-07-31T08:38:52;97086.63;;;18.31;70.48
6668;BME280;3370;47.712;9.082;2023-07-31T08:41:17;97094.91;;;18.36;69.35
6668;BME280;3370;47.712;9.082;2023-07-31T08:43:46;97094.91;;;18.13;68.99
6668;BME280;3370;47.712;9.082;2023-07-31T08:46:12;97087.41;;;18.09;66.68
6668;BME280;3370;47.712;9.082;2023-07-31T08:48:42;97075.50;;;18.17;68.89
6668;BME280;3370;47.712;9.082;2023-07-31T08:51:08;97077.75;;;18.22;69.03
6668;BME280;3370;47.712;9.082;2023-07-31T08:53:34;97069.09;;;18.22;66.47
6668;BME280;3370;47.712;9.082;2023-07-31T08:56:00;97071.25;;;18.28;67.25
6668;BME280;3370;47.712;9.082;2023-07-31T08:58:30;97061.44;;;18.31;67.15
6668;BME280;3370;47.712;9.082;2023-07-31T09:00:57;97055.28;;;18.44;66.83
6668;BME280;3370;47.712;9.082;2023-07-31T09:03:25;97052.34;;;18.48;65.74
6668;BME280;3370;47.712;9.082;2023-07-31T09:05:52;97051.84;;;18.54;66.00
6668;BME280;3370;47.712;9.082;2023-07-31T09:08:21;97046.66;;;18.66;67.44
6668;BME280;3370;47.712;9.082;2023-07-31T09:10:48;97044.53;;;18.48;63.88
6668;BME280;3370;47.712;9.082;2023-07-31T09:13:17;97038.72;;;18.67;66.95
6668;BME280;3370;47.712;9.082;2023-07-31T09:15:45;97051.50;;;18.70;64.92
6668;BME280;3370;47.712;9.082;2023-07-31T09:18:12;97040.75;;;18.86;66.16
6668;BME280;3370;47.712;9.082;2023-07-31T09:20:38;97051.63;;;18.80;65.68
6668;BME280;3370;47.712;9.082;2023-07-31T09:23:12;97047.81;;;18.95;63.12
6668;BME280;3370;47.712;9.082;2023-07-31T09:25:39;97050.09;;;19.00;62.41
6668;BME280;3370;47.712;9.082;2023-07-31T09:28:10;97048.97;;;19.14;63.24
6668;BME280;3370;47.712;9.082;2023-07-31T09:30:50;97045.41;;;19.15;63.97
6668;BME280;3370;47.712;9.082;2023-07-31T09:33:18;97051.41;;;19.27;61.48
6668;BME280;3370;47.712;9.082;2023-07-31T09:35:49;97041.44;;;19.32;61.72
6668;BME280;3370;47.712;9.082;2023-07-31T09:38:16;97045.19;;;19.18;61.26
6668;BME280;3370;47.712;9.082;2023-07-31T09:40:45;97036.34;;;19.30;61.89
6668;BME280;3370;47.712;9.082;2023-07-31T09:43:38;97051.22;;;19.51;61.96
6668;BME280;3370;47.712;9.082;2023-07-31T09:46:04;97052.25;;;19.27;61.16
6668;BME280;3370;47.712;9.082;2023-07-31T09:48:39;97044.19;;;19.30;61.85
6668;BME280;3370;47.712;9.082;2023-07-31T09:51:05;97036.75;;;19.26;60.12
6668;BME280;3370;47.712;9.082;2023-07-31T09:53:31;97041.25;;;19.24;61.35
6668;BME280;3370;47.712;9.082;2023-07-31T09:55:58;97039.47;;;19.57;61.26
6668;BME280;3370;47.712;9.082;2023-07-31T09:58:28;97027.88;;;19.49;61.23
6668;BME280;3370;47.712;9.082;2023-07-31T10:00:55;97024.25;;;19.73;60.66
6668;BME280;3370;47.712;9.082;2023-07-31T10:03:23;97018.28;;;19.71;60.75
6668;BME280;3370;47.712;9.082;2023-07-31T10:05:53;97011.78;;;19.77;60.68
6668;BME280;3370;47.712;9.082;2023-07-31T10:08:27;97004.63;;;20.00;61.91
6668;BME280;3370;47.712;9.082;2023-07-31T10:11:00;97010.09;;;19.97;60.70
6668;BME280;3370;47.712;9.082;2023-07-31T10:13:28;97018.19;;;19.94;60.68
6668;BME280;3370;47.712;9.082;2023-07-31T10:15:59;97002.16;;;19.98;59.84
6668;BME280;3370;47.712;9.082;2023-07-31T10:18:26;96999.09;;;19.93;60.45
6668;BME280;3370;47.712;9.082;2023-07-31T10:20:54;96993.66;;;20.06;59.48
6668;BME280;3370;47.712;9.082;2023-07-31T10:23:20;96992.31;;;20.11;59.98
6668;BME280;3370;47.712;9.082;2023-07-31T10:25:47;96983.25;;;20.16;58.69
6668;BME280;3370;47.712;9.082;2023-07-31T10:28:14;96978.09;;;20.25;59.84
6668;BME280;3370;47.712;9.082;2023-07-31T10:30:40;96978.91;;;20.26;57.93
6668;BME280;3370;47.712;9.082;2023-07-31T10:33:07;96970.72;;;20.40;59.31
6668;BME280;3370;47.712;9.082;2023-07-31T10:35:33;96971.06;;;20.57;58.54
6668;BME280;3370;47.712;9.082;2023-07-31T10:38:12;96964.03;;;20.57;56.75
6668;BME280;3370;47.712;9.082;2023-07-31T10:40:39;96954.13;;;20.41;56.58
6668;BME280;3370;47.712;9.082;2023-07-31T10:43:05;96943.28;;;20.56;58.59
6668;BME280;3370;47.712;9.082;2023-07-31T10:45:40;96947.75;;;20.65;58.02
6668;BME280;3370;47.712;9.082;2023-07-31T10:48:13;96942.44;;;20.45;56.10
6668;BME280;3370;47.712;9.082;2023-07-31T10:51:11;96941.13;;;20.61;55.88
6668;BME280;3370;47.712;9.082;2023-07-31T10:53:38;96932.06;;;20.75;55.07
6668;BME280;3370;47.712;9.082;2023-07-31T10:56:09;96926.59;;;20.97;54.32
6668;BME280;3370;47.712;9.082;2023-07-31T10:58:36;96926.03;;;20.94;55.66
6668;BME280;3370;47.712;9.082;2023-07-31T11:01:04;96914.50;;;20.96;56.21
6668;BME280;3370;47.712;9.082;2023-07-31T11:03:47;96906.38;;;21.29;55.98
6668;BME280;3370;47.712;9.082;2023-07-31T11:06:15;96907.31;;;21.28;56.31
6668;BME280;3370;47.712;9.082;2023-07-31T11:08:46;96899.34;;;21.49;55.21
6668;BME280;3370;47.712;9.082;2023-07-31T11:11:15;96893.50;;;21.64;53.86
6668;BME280;3370;47.712;9.082;2023-07-31T11:13:52;96892.84;;;21.53;52.77
6668;BME280;3370;47.712;9.082;2023-07-31T11:16:21;96894.78;;;21.98;54.12
6668;BME280;3370;47.712;9.082;2023-07-31T11:18:49;96885.03;;;22.18;54.62
6668;BME280;3370;47.712;9.082;2023-07-31T11:21:20;96884.47;;;22.70;54.90
6668;BME280;3370;47.712;9.082;2023-07-31T11:23:52;96880.47;;;22.20;51.77
6668;BME280;3370;47.712;9.082;2023-07-31T11:26:18;96883.19;;;22.00;50.71
6668;BME280;3370;47.712;9.082;2023-07-31T11:28:47;96882.81;;;22.23;52.80
6668;BME280;3370;47.712;9.082;2023-07-31T11:31:13;96892.16;;;22.26;51.88
6668;BME280;3370;47.712;9.082;2023-07-31T11:33:39;96892.03;;;21.99;53.72
6668;BME280;3370;47.712;9.082;2023-07-31T11:36:05;96895.94;;;22.13;52.92
6668;BME280;3370;47.712;9.082;2023-07-31T11:38:33;96904.38;;;21.70;52.83
6668;BME280;3370;47.712;9.082;2023-07-31T11:41:04;96888.72;;;22.25;51.92
6668;BME280;3370;47.712;9.082;2023-07-31T11:43:31;96893.53;;;23.11;51.35
6668;BME280;3370;47.712;9.082;2023-07-31T11:45:59;96884.25;;;23.35;50.43
6668;BME280;3370;47.712;9.082;2023-07-31T11:48:34;96877.84;;;23.38;49.92
6668;BME280;3370;47.712;9.082;2023-07-31T11:51:08;96884.56;;;23.84;50.26
6668;BME280;3370;47.712;9.082;2023-07-31T11:53:54;96890.31;;;23.35;49.81
6668;BME280;3370;47.712;9.082;2023-07-31T11:56:23;96889.03;;;23.22;50.42
6668;BME280;3370;47.712;9.082;2023-07-31T11:58:58;96882.16;;;23.03;50.41
6668;BME280;3370;47.712;9.082;2023-07-31T12:01:25;96885.44;;;22.87;47.39
6668;BME280;3370;47.712;9.082;2023-07-31T12:03:53;96877.50;;;23.14;49.55
6668;BME280;3370;47.712;9.082;2023-07-31T12:06:19;96858.28;;;23.58;48.23
6668;BME280;3370;47.712;9.082;2023-07-31T12:08:46;96861.06;;;23.57;47.97
6668;BME280;3370;47.712;9.082;2023-07-31T12:11:12;96857.47;;;23.58;47.58
6668;BME280;3370;47.712;9.082;2023-07-31T12:13:40;96856.25;;;23.70;49.83
6668;BME280;3370;47.712;9.082;2023-07-31T12:16:06;96851.16;;;23.77;47.01
6668;BME280;3370;47.712;9.082;2023-07-31T12:18:37;96846.91;;;24.10;48.88
6668;BME280;3370;47.712;9.082;2023-07-31T12:21:08;96837.66;;;23.63;46.95
6668;BME280;3370;47.712;9.082;2023-07-31T12:23:36;96838.66;;;23.62;46.92
6668;BME280;3370;47.712;9.082;2023-07-31T12:31:21;96827.47;;;22.90;49.38
6668;BME280;3370;47.712;9.082;2023-07-31T12:33:50;96822.28;;;22.98;48.23
6668;BME280;3370;47.712;9.082;2023-07-31T12:36:22;96823.00;;;23.52;48.35
6668;BME280;3370;47.712;9.082;2023-07-31T12:38:48;96813.06;;;23.99;47.52
6668;BME280;3370;47.712;9.082;2023-07-31T12:41:15;96816.78;;;24.39;48.16
6668;BME280;3370;47.712;9.082;2023-07-31T12:43:42;96817.09;;;24.36;47.87
6668;BME280;3370;47.712;9.082;2023-07-31T12:46:09;96806.22;;;24.14;46.23
6668;BME280;3370;47.712;9.082;2023-07-31T12:48:35;96812.38;;;23.88;45.03
6668;BME280;3370;47.712;9.082;2023-07-31T12:51:02;96808.28;;;23.60;45.66
6668;BME280;3370;47.712;9.082;2023-07-31T12:53:28;96800.78;;;23.73;49.12
6668;BME280;3370;47.712;9.082;2023-07-31T12:55:55;96800.72;;;23.91;48.84
6668;BME280;3370;47.712;9.082;2023-07-31T12:58:21;96794.44;;;24.43;48.75
6668;BME280;3370;47.712;9.082;2023-07-31T13:00:47;96784.75;;;24.35;45.71
6668;BME280;3370;47.712;9.082;2023-07-31T13:03:13;96777.81;;;24.18;46.50
6668;BME280;3370;47.712;9.082;2023-07-31T13:05:38;96778.09;;;23.56;47.00
6668;BME280;3370;47.712;9.082;2023-07-31T13:08:04;96784.50;;;23.61;48.37
6668;BME280;3370;47.712;9.082;2023-07-31T13:10:30;96777.84;;;23.75;49.35
6668;BME280;3370;47.712;9.082;2023-07-31T13:12:56;96772.03;;;23.89;47.64
6668;BME280;3370;47.712;9.082;2023-07-31T13:15:23;96767.63;;;24.06;47.15
6668;BME280;3370;47.712;9.082;2023-07-31T13:17:49;96761.53;;;23.98;48.19
6668;BME280;3370;47.712;9.082;2023-07-31T13:20:14;96753.88;;;23.78;46.93
6668;BME280;3370;47.712;9.082;2023-07-31T13:22:40;96748.56;;;23.96;46.09
6668;BME280;3370;47.712;9.082;2023-07-31T13:25:07;96757.00;;;24.33;47.20
6668;BME280;3370;47.712;9.082;2023-07-31T13:27:33;96742.91;;;24.66;47.25
6668;BME280;3370;47.712;9.082;2023-07-31T13:29:59;96738.53;;;25.39;44.67
6668;BME280;3370;47.712;9.082;2023-07-31T13:32:24;96736.25;;;25.36;45.11